Time;durP1;ratioP1;P1;durP2;ratioP2;P2;SDS_P1;SDS_P2;PMS_P1;PMS_P2;Temp;Humidity;BMP_temperature;BMP_pressure;BME280_temperature;BME280_humidity;BME280_pressure;Samples;Min_cycle;Max_cycle;Signal;HPM_P1;HPM_P2
2021/08/05 00:09:08;;;;;;;4.07;2.60;;;21.40;65.80;;;;;;20825044;28;20418;-19
2021/08/05 00:19:09;;;;;;;4.70;3.38;;;21.40;65.60;;;;;;20829020;28;20108;-19
2021/08/05 00:29:09;;;;;;;4.40;2.47;;;21.40;65.40;;;;;;20853356;28;20577;-19
2021/08/05 00:39:10;;;;;;;4.05;2.38;;;21.40;65.20;;;;;;20853328;28;20124;-19
2021/08/05 00:49:10;;;;;;;4.30;2.47;;;21.40;65.10;;;;;;20840877;28;20095;-19
2021/08/05 00:59:11;;;;;;;4.32;3.28;;;21.40;65.10;;;;;;20824164;28;20486;-19
2021/08/05 01:09:26;;;;;;;5.40;2.80;;;21.30;64.90;;;;;;20821928;28;20496;-19
2021/08/05 01:19:58;;;;;;;3.25;2.83;;;21.30;64.90;;;;;;20821228;28;20038;-18
2021/08/05 01:29:59;;;;;;;3.50;2.90;;;21.30;64.60;;;;;;20812599;28;20092;-19
2021/08/05 01:40:02;;;;;;;7.18;3.90;;;21.30;64.60;;;;;;20820793;28;20029;-18
2021/08/05 01:50:03;;;;;;;3.55;3.10;;;21.30;64.50;;;;;;20821490;28;20103;-19
2021/08/05 02:00:06;;;;;;;5.47;3.10;;;21.30;64.30;;;;;;20809881;28;20049;-19
2021/08/05 02:10:21;;;;;;;4.22;2.75;;;21.30;64.10;;;;;;20816833;28;20061;-18
2021/08/05 02:20:23;;;;;;;4.43;2.88;;;21.30;64.30;;;;;;20818883;28;20033;-19
2021/08/05 02:30:25;;;;;;;3.85;3.00;;;21.30;64.40;;;;;;20824183;28;20025;-20
2021/08/05 02:40:26;;;;;;;3.95;3.08;;;21.30;64.10;;;;;;20833747;28;20028;-20
2021/08/05 02:50:30;;;;;;;4.70;3.15;;;21.30;64.00;;;;;;20832282;28;20101;-20
2021/08/05 03:00:31;;;;;;;4.35;2.75;;;21.30;64.00;;;;;;20831172;28;20044;-20
2021/08/05 03:10:31;;;;;;;3.92;2.72;;;21.20;63.70;;;;;;20830718;28;20037;-20
2021/08/05 03:20:32;;;;;;;8.93;3.63;;;21.30;63.70;;;;;;20829195;28;20513;-20
2021/08/05 03:30:33;;;;;;;4.30;2.78;;;21.20;63.70;;;;;;20828989;28;20064;-20
2021/08/05 03:40:34;;;;;;;3.97;3.35;;;21.20;63.60;;;;;;20829234;28;20042;-20
2021/08/05 03:50:35;;;;;;;4.30;2.90;;;21.20;63.50;;;;;;20832302;28;20064;-20
2021/08/05 04:00:36;;;;;;;4.18;3.28;;;21.20;63.50;;;;;;20831088;28;20033;-20
2021/08/05 04:10:37;;;;;;;4.35;3.40;;;21.20;64.10;;;;;;20834523;28;20460;-20
2021/08/05 04:20:38;;;;;;;4.82;3.20;;;21.20;63.60;;;;;;20825743;28;20041;-20
2021/08/05 04:30:38;;;;;;;3.78;3.17;;;21.20;63.70;;;;;;20823528;28;20706;-20
2021/08/05 04:40:39;;;;;;;6.93;4.17;;;21.20;63.80;;;;;;20822733;28;20545;-20
2021/08/05 04:50:43;;;;;;;4.32;3.28;;;21.20;63.70;;;;;;20821630;28;20999;-19
2021/08/05 05:00:44;;;;;;;4.60;3.55;;;21.20;64.00;;;;;;20830634;23;20064;-21
2021/08/05 05:10:46;;;;;;;4.93;3.38;;;21.20;64.20;;;;;;20815380;28;20034;-21
2021/08/05 05:20:47;;;;;;;5.60;3.15;;;21.20;64.10;;;;;;20818766;28;20041;-21
2021/08/05 05:30:47;;;;;;;5.28;3.67;;;21.20;64.20;;;;;;20817907;28;20033;-21
2021/08/05 05:40:48;;;;;;;4.57;3.10;;;21.20;64.10;;;;;;20818538;28;20034;-19
2021/08/05 05:50:49;;;;;;;12.63;5.60;;;21.20;64.30;;;;;;20818645;28;20362;-21
2021/08/05 06:00:50;;;;;;;22.57;5.47;;;21.20;64.80;;;;;;20825998;28;20045;-21
2021/08/05 06:10:50;;;;;;;29.58;8.13;;;21.20;64.70;;;;;;20842943;28;20456;-21
2021/08/05 06:20:51;;;;;;;21.60;6.10;;;21.20;64.50;;;;;;20835533;28;20509;-21
2021/08/05 06:30:51;;;;;;;17.52;6.20;;;21.30;64.40;;;;;;20835195;28;20552;-21
2021/08/05 06:40:52;;;;;;;13.10;4.90;;;21.30;64.30;;;;;;20829268;28;20122;-21
2021/08/05 06:50:52;;;;;;;8.75;4.95;;;21.20;64.50;;;;;;20824947;28;20038;-21
2021/08/05 07:00:53;;;;;;;7.00;5.72;;;21.20;64.60;;;;;;20829132;28;20116;-21
2021/08/05 07:10:53;;;;;;;8.43;5.25;;;21.20;64.60;;;;;;20829212;28;20037;-21
2021/08/05 07:20:56;;;;;;;13.27;5.28;;;21.20;64.70;;;;;;20827089;28;20041;-21
2021/08/05 07:30:57;;;;;;;19.45;5.75;;;21.20;64.60;;;;;;20826921;28;20506;-21
2021/08/05 07:40:58;;;;;;;11.90;4.57;;;21.20;64.60;;;;;;20823251;28;20038;-21
2021/08/05 07:50:58;;;;;;;8.95;4.93;;;21.20;64.60;;;;;;20826018;28;20406;-21
2021/08/05 08:00:59;;;;;;;6.63;3.78;;;21.20;64.60;;;;;;20825023;28;20047;-21
2021/08/05 08:11:00;;;;;;;8.48;4.75;;;21.20;64.70;;;;;;20822805;28;20524;-21
2021/08/05 08:21:01;;;;;;;9.15;4.13;;;21.20;64.50;;;;;;20820012;28;20033;-21
2021/08/05 08:31:02;;;;;;;6.35;4.38;;;21.20;64.70;;;;;;20823098;28;20528;-21
2021/08/05 08:41:03;;;;;;;5.90;3.60;;;21.30;64.30;;;;;;20822199;28;20543;-21
2021/08/05 08:51:03;;;;;;;15.13;3.80;;;21.30;64.30;;;;;;20822771;28;20458;-21
2021/08/05 09:01:04;;;;;;;13.48;3.83;;;21.40;64.40;;;;;;20820859;28;20037;-21
2021/08/05 09:11:05;;;;;;;11.90;4.97;;;21.40;64.30;;;;;;20819976;28;20045;-21
2021/08/05 09:21:09;;;;;;;28.58;6.35;;;21.40;64.80;;;;;;20819352;28;20040;-21
2021/08/05 09:31:16;;;;;;;21.85;6.75;;;21.40;66.10;;;;;;20818839;28;20033;-21
2021/08/05 09:41:16;;;;;;;24.67;6.13;;;21.50;66.70;;;;;;20827885;28;20037;-21
2021/08/05 09:51:18;;;;;;;17.48;7.43;;;21.50;67.10;;;;;;20835082;28;20036;-21
2021/08/05 10:01:18;;;;;;;33.97;9.45;;;21.50;67.00;;;;;;20833581;28;20055;-21
2021/08/05 10:11:34;;;;;;;26.45;9.43;;;21.60;67.00;;;;;;20836857;28;20061;-21
2021/08/05 10:21:37;;;;;;;18.55;7.47;;;21.50;66.90;;;;;;20832191;28;20080;-21
2021/08/05 10:31:39;;;;;;;24.58;8.23;;;21.60;67.40;;;;;;20830675;28;20033;-20
2021/08/05 10:41:40;;;;;;;17.73;6.60;;;21.60;67.90;;;;;;20831031;28;20050;-20
2021/08/05 10:51:41;;;;;;;23.80;8.25;;;21.60;67.80;;;;;;20828467;28;20132;-22
2021/08/05 11:01:46;;;;;;;21.45;8.05;;;21.60;68.50;;;;;;20828385;28;20088;-21
2021/08/05 11:11:46;;;;;;;16.63;6.50;;;21.70;68.30;;;;;;20827934;28;20038;-21
2021/08/05 11:21:47;;;;;;;21.60;7.32;;;21.70;68.50;;;;;;20826313;28;20072;-21
2021/08/05 11:31:48;;;;;;;16.30;6.85;;;21.80;68.70;;;;;;20824842;28;20505;-21
2021/08/05 11:41:55;;;;;;;13.13;6.63;;;21.80;68.60;;;;;;20824132;28;20069;-20
2021/08/05 11:51:57;;;;;;;17.17;6.55;;;21.80;68.70;;;;;;20825637;28;20025;-20
2021/08/05 12:02:16;;;;;;;23.05;6.97;;;21.80;68.40;;;;;;20825163;28;20041;-20
2021/08/05 12:12:17;;;;;;;14.45;8.10;;;21.90;68.70;;;;;;20825282;28;20045;-20
2021/08/05 12:22:17;;;;;;;14.00;6.65;;;21.90;69.90;;;;;;20832796;28;20045;-20
2021/08/05 12:32:18;;;;;;;21.23;7.70;;;22.00;69.60;;;;;;20839727;28;20052;-20
2021/08/05 12:42:19;;;;;;;17.50;7.10;;;22.10;69.30;;;;;;20824510;28;20060;-20
2021/08/05 12:52:20;;;;;;;12.02;6.88;;;22.10;69.10;;;;;;20821742;28;20117;-20
2021/08/05 13:02:20;;;;;;;14.93;6.15;;;22.20;69.00;;;;;;20820171;28;20073;-21
2021/08/05 13:12:30;;;;;;;19.77;7.30;;;22.20;69.30;;;;;;20784805;28;20030;-21
2021/08/05 13:22:52;;;;;;;22.60;7.63;;;22.20;69.80;;;;;;20808564;28;20117;-21
2021/08/05 13:32:52;;;;;;;25.65;6.90;;;22.20;69.60;;;;;;20818706;28;20041;-21
2021/08/05 13:42:53;;;;;;;19.58;7.40;;;22.20;69.50;;;;;;20817946;28;20441;-21
2021/08/05 13:52:57;;;;;;;27.98;6.53;;;22.30;69.50;;;;;;20816925;28;20041;-21
2021/08/05 14:02:58;;;;;;;30.63;8.63;;;22.20;69.50;;;;;;20817329;28;20042;-21
2021/08/05 14:13:00;;;;;;;20.58;9.77;;;22.30;70.00;;;;;;20826315;28;20041;-21
2021/08/05 14:23:01;;;;;;;22.02;8.52;;;22.20;70.30;;;;;;20821053;28;20144;-21
2021/08/05 14:33:01;;;;;;;23.33;7.93;;;22.20;69.80;;;;;;20835123;28;20037;-21
2021/08/05 14:43:02;;;;;;;13.98;6.68;;;22.10;69.40;;;;;;20828560;28;20044;-21
2021/08/05 14:53:03;;;;;;;15.35;6.65;;;22.00;69.00;;;;;;20749431;28;20062;-21
2021/08/05 15:03:04;;;;;;;15.57;7.53;;;21.90;68.50;;;;;;20770603;28;20120;-21
2021/08/05 15:13:05;;;;;;;26.00;12.75;;;21.90;68.80;;;;;;20822079;28;20521;-21
2021/08/05 15:23:05;;;;;;;28.13;12.68;;;21.90;67.80;;;;;;20825368;28;20121;-21
2021/08/05 15:33:06;;;;;;;26.52;12.30;;;21.90;67.80;;;;;;20805817;28;20038;-21
2021/08/05 15:43:11;;;;;;;26.67;12.23;;;21.80;68.10;;;;;;20818757;28;20084;-20
2021/08/05 15:53:11;;;;;;;32.38;11.88;;;21.80;68.40;;;;;;20826257;28;20041;-20
2021/08/05 16:03:12;;;;;;;18.55;12.05;;;21.80;68.50;;;;;;20825730;28;20041;-22
2021/08/05 16:13:15;;;;;;;16.75;10.50;;;21.80;68.30;;;;;;20816095;28;20048;-21
2021/08/05 16:23:15;;;;;;;17.42;11.18;;;21.80;68.40;;;;;;20742711;28;20069;-21
2021/08/05 16:33:16;;;;;;;14.93;10.30;;;21.80;68.40;;;;;;20742445;28;20038;-21
2021/08/05 16:43:17;;;;;;;16.08;9.75;;;21.70;68.20;;;;;;20741042;28;20486;-21
2021/08/05 16:53:17;;;;;;;16.40;10.98;;;21.70;68.30;;;;;;20739684;28;20026;-21
2021/08/05 17:03:19;;;;;;;16.20;10.23;;;21.70;68.20;;;;;;20741413;28;20038;-21
2021/08/05 17:13:19;;;;;;;16.67;9.07;;;21.70;68.10;;;;;;20740254;28;20042;-22
2021/08/05 17:23:20;;;;;;;13.93;8.40;;;21.70;68.10;;;;;;20739482;28;20044;-21
2021/08/05 17:33:20;;;;;;;11.88;9.27;;;21.70;68.10;;;;;;20739878;28;20073;-21
2021/08/05 17:43:21;;;;;;;11.60;9.20;;;21.70;68.10;;;;;;20746185;28;20509;-21
2021/08/05 17:53:21;;;;;;;13.03;8.03;;;21.70;68.60;;;;;;20738137;28;20500;-21
2021/08/05 18:03:23;;;;;;;11.27;7.97;;;21.70;68.10;;;;;;20750737;28;20096;-21
2021/08/05 18:13:25;;;;;;;11.70;7.80;;;21.70;68.20;;;;;;20758880;28;20062;-21
2021/08/05 18:23:25;;;;;;;11.50;8.38;;;21.70;68.20;;;;;;20751689;28;20057;-20
2021/08/05 18:33:26;;;;;;;11.18;7.50;;;21.70;68.10;;;;;;20750470;28;20474;-20
2021/08/05 18:43:26;;;;;;;9.05;7.03;;;21.70;67.90;;;;;;20749915;28;20117;-21
2021/08/05 18:53:27;;;;;;;9.13;7.63;;;21.70;68.10;;;;;;20749235;28;20064;-21
2021/08/05 19:03:28;;;;;;;8.30;7.15;;;21.70;68.20;;;;;;20748133;28;20446;-21
2021/08/05 19:13:30;;;;;;;10.23;6.23;;;21.60;68.20;;;;;;20747176;28;20037;-21
2021/08/05 19:23:31;;;;;;;8.23;6.95;;;21.60;68.30;;;;;;20748556;28;20475;-21
2021/08/05 19:33:31;;;;;;;8.20;7.00;;;21.60;68.40;;;;;;20747868;28;20066;-21
2021/08/05 19:43:32;;;;;;;8.95;7.07;;;21.60;68.60;;;;;;20747250;28;20442;-22
2021/08/05 19:53:34;;;;;;;8.50;6.93;;;21.60;68.60;;;;;;20745236;28;20104;-21
2021/08/05 20:03:35;;;;;;;13.90;6.38;;;21.60;68.70;;;;;;20744784;28;20049;-21
2021/08/05 20:13:35;;;;;;;10.07;6.88;;;21.60;68.70;;;;;;20744569;28;20037;-21
2021/08/05 20:23:37;;;;;;;8.45;6.32;;;21.50;68.70;;;;;;20747065;28;20048;-21
2021/08/05 20:33:38;;;;;;;8.07;5.50;;;21.60;68.80;;;;;;20759044;28;20045;-21
2021/08/05 20:43:39;;;;;;;7.32;6.22;;;21.50;68.80;;;;;;20757284;28;20037;-22
2021/08/05 20:53:39;;;;;;;7.10;5.73;;;21.50;68.90;;;;;;20741681;28;20421;-20
2021/08/05 21:03:40;;;;;;;7.50;6.32;;;21.50;68.90;;;;;;20740212;28;20476;-21
2021/08/05 21:13:42;;;;;;;6.45;5.70;;;21.50;69.00;;;;;;20739387;28;20403;-21
2021/08/05 21:23:42;;;;;;;7.20;5.47;;;21.50;69.00;;;;;;20738745;28;20038;-21
2021/08/05 21:33:43;;;;;;;6.80;6.00;;;21.50;69.10;;;;;;20744322;28;20610;-21
2021/08/05 21:43:43;;;;;;;7.30;6.07;;;21.40;69.10;;;;;;20755485;28;20050;-20
2021/08/05 21:53:44;;;;;;;7.18;5.65;;;21.50;69.10;;;;;;20754613;28;20042;-20
2021/08/05 22:03:45;;;;;;;6.82;6.15;;;21.40;69.10;;;;;;20753374;28;20077;-21
2021/08/05 22:13:45;;;;;;;6.63;5.72;;;21.40;69.10;;;;;;20754262;28;20038;-21
2021/08/05 22:23:46;;;;;;;6.25;5.07;;;21.40;69.10;;;;;;20762091;28;20541;-20
2021/08/05 22:33:46;;;;;;;5.47;4.47;;;21.40;69.10;;;;;;20751173;28;20109;-20
2021/08/05 22:43:47;;;;;;;5.97;5.15;;;21.40;69.10;;;;;;20749683;28;20034;-20
2021/08/05 22:53:47;;;;;;;6.28;5.18;;;21.40;69.10;;;;;;20749050;28;20057;-20
2021/08/05 23:03:48;;;;;;;5.63;4.93;;;21.40;69.10;;;;;;20748714;28;20042;-21
2021/08/05 23:13:49;;;;;;;6.10;5.17;;;21.40;69.00;;;;;;20748804;28;20506;-21
2021/08/05 23:23:49;;;;;;;5.22;4.22;;;21.40;69.00;;;;;;20746230;28;21270;-21
2021/08/05 23:33:50;;;;;;;5.13;4.63;;;21.40;68.90;;;;;;20746452;28;20042;-21
2021/08/05 23:43:50;;;;;;;4.70;3.83;;;21.40;68.80;;;;;;20745385;28;20041;-21
2021/08/05 23:53:51;;;;;;;6.38;4.97;;;21.40;68.80;;;;;;20744292;28;20037;-20
